APG326 RPLL-RPVB
Flight info
| Callsign | APG326 |
|---|---|
| Flight time | N/A |
| Altitude | 31000 |
| Route | VERDE2V VERDE W24 TAPER B472 LAMBO LAMBO3P |
| Aircraft | A320/M-SDE3FGHIRWY/LB1 |
Departure
| Time | N/A |
|---|---|
| Airport | Ninoy Aquino International Airport (RPLL) |
Arrival
| Time | 2026-04-30 20:28 |
|---|---|
| Airport | Bacolod-Silay International Airport (RPVB) |
| Time | Latitude | Longitude | Altitude | Speed | Heading |
|---|---|---|---|---|---|
| 2026-04-30 20:28 | 10.77636 | 123.01554 | 86 ft | 0 kts | 301° |
| 2026-04-30 20:35 | 10.77633 | 123.01558 | 86 ft | 2 kts | 301° |
| 2026-04-30 20:35 | 10.77624 | 123.01573 | 89 ft | 2 kts | 301° |
| 2026-04-30 20:35 | 10.77607 | 123.01604 | 87 ft | 3 kts | 273° |
| 2026-04-30 20:36 | 10.77610 | 123.01622 | 84 ft | 3 kts | 237° |
| 2026-04-30 20:36 | 10.77610 | 123.01624 | 84 ft | 0 kts | 233° |
| 2026-04-30 20:36 | 10.77580 | 123.01600 | 84 ft | 18 kts | 211° |
| 2026-04-30 20:37 | 10.77472 | 123.01541 | 86 ft | 12 kts | 210° |
| 2026-04-30 20:37 | 10.77400 | 123.01510 | 86 ft | 10 kts | 185° |
| 2026-04-30 20:37 | 10.77353 | 123.01546 | 88 ft | 8 kts | 120° |
| 2026-04-30 20:37 | 10.77326 | 123.01590 | 88 ft | 7 kts | 125° |
| 2026-04-30 20:38 | 10.77280 | 123.01649 | 85 ft | 13 kts | 143° |
| 2026-04-30 20:38 | 10.77200 | 123.01645 | 86 ft | 11 kts | 211° |
| 2026-04-30 20:38 | 10.77142 | 123.01609 | 88 ft | 9 kts | 210° |
| 2026-04-30 20:39 | 10.77054 | 123.01560 | 88 ft | 8 kts | 208° |
| 2026-04-30 20:39 | 10.77004 | 123.01530 | 89 ft | 8 kts | 211° |
| 2026-04-30 20:39 | 10.76952 | 123.01484 | 92 ft | 11 kts | 239° |
| 2026-04-30 20:40 | 10.76914 | 123.01475 | 89 ft | 6 kts | 34° |
| 2026-04-30 20:40 | 10.76921 | 123.01479 | 88 ft | 0 kts | 30° |
| 2026-04-30 20:40 | 10.76929 | 123.01484 | 89 ft | 14 kts | 30° |
| 2026-04-30 20:41 | 10.77979 | 123.02102 | 93 ft | 145 kts | 31° |
| 2026-04-30 20:41 | 10.78873 | 123.02617 | 632 ft | 146 kts | 30° |
| 2026-04-30 20:41 | 10.79773 | 123.03116 | 1244 ft | 148 kts | 27° |
| 2026-04-30 20:41 | 10.80795 | 123.03211 | 1848 ft | 155 kts | 347° |
| 2026-04-30 20:42 | 10.81737 | 123.02582 | 2191 ft | 176 kts | 309° |